sensor_id;sensor_type;location;lat;lon;timestamp;pressure;altitude;pressure_sealevel;temperature;humidity
43147;BME280;28752;48.266;7.402;2023-12-20T00:00:54;99646.28;;;7.87;80.31
43147;BME280;28752;48.266;7.402;2023-12-20T00:03:20;99653.09;;;7.89;80.07
43147;BME280;28752;48.266;7.402;2023-12-20T00:05:45;99641.22;;;7.95;79.98
43147;BME280;28752;48.266;7.402;2023-12-20T00:08:11;99634.88;;;7.97;79.55
43147;BME280;28752;48.266;7.402;2023-12-20T00:10:36;99624.47;;;7.96;79.91
43147;BME280;28752;48.266;7.402;2023-12-20T00:13:02;99627.44;;;8.03;79.60
43147;BME280;28752;48.266;7.402;2023-12-20T00:15:27;99637.16;;;8.02;79.68
43147;BME280;28752;48.266;7.402;2023-12-20T00:17:52;99638.59;;;8.06;79.40
43147;BME280;28752;48.266;7.402;2023-12-20T00:20:18;99633.06;;;8.09;79.35
43147;BME280;28752;48.266;7.402;2023-12-20T00:22:43;99651.53;;;8.09;79.37
43147;BME280;28752;48.266;7.402;2023-12-20T00:25:08;99644.56;;;8.08;79.65
43147;BME280;28752;48.266;7.402;2023-12-20T00:27:33;99635.13;;;7.94;79.38
43147;BME280;28752;48.266;7.402;2023-12-20T00:29:59;99640.84;;;7.99;79.27
43147;BME280;28752;48.266;7.402;2023-12-20T00:32:25;99630.88;;;8.03;79.11
43147;BME280;28752;48.266;7.402;2023-12-20T00:34:50;99634.50;;;8.02;79.19
43147;BME280;28752;48.266;7.402;2023-12-20T00:37:15;99642.28;;;8.04;79.08
43147;BME280;28752;48.266;7.402;2023-12-20T00:39:41;99639.53;;;8.05;79.06
43147;BME280;28752;48.266;7.402;2023-12-20T00:42:06;99634.25;;;8.05;79.24
43147;BME280;28752;48.266;7.402;2023-12-20T00:44:32;99632.56;;;8.04;79.41
43147;BME280;28752;48.266;7.402;2023-12-20T00:46:57;99635.22;;;8.04;79.30
43147;BME280;28752;48.266;7.402;2023-12-20T00:49:22;99635.59;;;7.99;79.68
43147;BME280;28752;48.266;7.402;2023-12-20T00:51:48;99637.28;;;8.00;79.47
43147;BME280;28752;48.266;7.402;2023-12-20T00:54:15;99633.78;;;8.00;79.74
43147;BME280;28752;48.266;7.402;2023-12-20T00:56:41;99630.06;;;8.03;79.81
43147;BME280;28752;48.266;7.402;2023-12-20T01:29:15;99609.16;;;7.78;81.44
43147;BME280;28752;48.266;7.402;2023-12-20T01:31:41;99617.91;;;7.79;81.83
43147;BME280;28752;48.266;7.402;2023-12-20T01:34:06;99609.25;;;7.88;81.46
43147;BME280;28752;48.266;7.402;2023-12-20T01:36:31;99606.88;;;7.85;81.37
43147;BME280;28752;48.266;7.402;2023-12-20T01:38:57;99616.44;;;7.86;81.68
43147;BME280;28752;48.266;7.402;2023-12-20T01:41:22;99620.75;;;7.87;81.42
43147;BME280;28752;48.266;7.402;2023-12-20T01:43:48;99612.72;;;7.89;81.55
43147;BME280;28752;48.266;7.402;2023-12-20T01:46:14;99616.69;;;7.94;81.28
43147;BME280;28752;48.266;7.402;2023-12-20T01:48:39;99619.19;;;7.96;81.53
43147;BME280;28752;48.266;7.402;2023-12-20T01:51:05;99624.22;;;7.99;81.35
43147;BME280;28752;48.266;7.402;2023-12-20T01:53:31;99623.84;;;7.92;81.81
43147;BME280;28752;48.266;7.402;2023-12-20T01:55:58;99616.19;;;8.00;81.40
43147;BME280;28752;48.266;7.402;2023-12-20T01:58:24;99620.75;;;7.87;81.99
43147;BME280;28752;48.266;7.402;2023-12-20T02:00:50;99618.81;;;7.89;81.79
43147;BME280;28752;48.266;7.402;2023-12-20T02:03:16;99612.94;;;7.97;81.98
43147;BME280;28752;48.266;7.402;2023-12-20T02:05:42;99600.13;;;7.92;82.08
43147;BME280;28752;48.266;7.402;2023-12-20T02:08:07;99615.06;;;8.03;82.36
43147;BME280;28752;48.266;7.402;2023-12-20T02:10:34;99610.56;;;8.26;81.81
43147;BME280;28752;48.266;7.402;2023-12-20T02:12:59;99612.94;;;8.29;81.95
43147;BME280;28752;48.266;7.402;2023-12-20T02:15:24;99604.53;;;8.35;81.63
43147;BME280;28752;48.266;7.402;2023-12-20T02:17:50;99618.69;;;8.34;81.69
43147;BME280;28752;48.266;7.402;2023-12-20T02:20:15;99619.84;;;8.42;81.92
43147;BME280;28752;48.266;7.402;2023-12-20T02:22:41;99627.59;;;8.54;81.61
43147;BME280;28752;48.266;7.402;2023-12-20T02:25:06;99618.72;;;8.56;80.69
43147;BME280;28752;48.266;7.402;2023-12-20T02:27:32;99613.88;;;8.40;80.53
43147;BME280;28752;48.266;7.402;2023-12-20T02:29:57;99628.53;;;8.32;80.92
43147;BME280;28752;48.266;7.402;2023-12-20T02:32:24;99625.03;;;8.32;81.03
43147;BME280;28752;48.266;7.402;2023-12-20T02:34:51;99630.25;;;8.22;81.04
43147;BME280;28752;48.266;7.402;2023-12-20T02:37:17;99626.97;;;8.30;80.81
43147;BME280;28752;48.266;7.402;2023-12-20T02:39:42;99611.66;;;8.24;80.98
43147;BME280;28752;48.266;7.402;2023-12-20T02:42:07;99605.00;;;8.08;81.58
43147;BME280;28752;48.266;7.402;2023-12-20T02:44:33;99607.84;;;8.16;82.04
43147;BME280;28752;48.266;7.402;2023-12-20T02:46:58;99612.31;;;8.37;81.13
43147;BME280;28752;48.266;7.402;2023-12-20T02:49:23;99615.34;;;8.32;81.54
43147;BME280;28752;48.266;7.402;2023-12-20T02:51:49;99626.22;;;8.39;81.24
43147;BME280;28752;48.266;7.402;2023-12-20T02:54:14;99624.00;;;8.56;80.78
43147;BME280;28752;48.266;7.402;2023-12-20T02:56:39;99625.56;;;8.58;80.82
43147;BME280;28752;48.266;7.402;2023-12-20T02:59:05;99619.16;;;8.61;80.83
43147;BME280;28752;48.266;7.402;2023-12-20T03:01:34;99631.97;;;8.65;80.77
43147;BME280;28752;48.266;7.402;2023-12-20T03:04:00;99625.75;;;8.66;79.88
43147;BME280;28752;48.266;7.402;2023-12-20T03:06:25;99627.97;;;8.50;80.68
43147;BME280;28752;48.266;7.402;2023-12-20T03:08:51;99629.13;;;8.68;80.50
43147;BME280;28752;48.266;7.402;2023-12-20T03:11:16;99629.03;;;8.80;79.43
43147;BME280;28752;48.266;7.402;2023-12-20T03:13:42;99624.91;;;8.87;79.54
43147;BME280;28752;48.266;7.402;2023-12-20T03:16:11;99628.47;;;8.76;79.46
43147;BME280;28752;48.266;7.402;2023-12-20T03:18:37;99626.81;;;8.85;78.55
43147;BME280;28752;48.266;7.402;2023-12-20T03:21:03;99635.00;;;8.82;78.90
43147;BME280;28752;48.266;7.402;2023-12-20T03:23:29;99637.59;;;8.93;78.91
43147;BME280;28752;48.266;7.402;2023-12-20T03:25:56;99633.41;;;8.91;78.66
43147;BME280;28752;48.266;7.402;2023-12-20T03:28:21;99631.81;;;8.78;79.12
43147;BME280;28752;48.266;7.402;2023-12-20T03:30:48;99635.22;;;8.90;79.10
43147;BME280;28752;48.266;7.402;2023-12-20T03:33:13;99634.47;;;8.67;79.72
43147;BME280;28752;48.266;7.402;2023-12-20T03:35:38;99639.84;;;8.77;79.39
43147;BME280;28752;48.266;7.402;2023-12-20T03:38:04;99647.03;;;8.96;78.97
43147;BME280;28752;48.266;7.402;2023-12-20T03:40:29;99638.88;;;8.99;78.42
43147;BME280;28752;48.266;7.402;2023-12-20T03:42:54;99642.22;;;8.80;79.12
43147;BME280;28752;48.266;7.402;2023-12-20T03:55:56;99668.56;;;8.91;78.67
43147;BME280;28752;48.266;7.402;2023-12-20T03:59:21;99660.75;;;8.89;79.16
43147;BME280;28752;48.266;7.402;2023-12-20T04:01:47;99667.22;;;8.97;78.63
43147;BME280;28752;48.266;7.402;2023-12-20T04:04:13;99668.63;;;9.01;78.74
43147;BME280;28752;48.266;7.402;2023-12-20T04:06:38;99688.97;;;8.89;79.22
43147;BME280;28752;48.266;7.402;2023-12-20T04:09:03;99683.44;;;8.92;79.41
43147;BME280;28752;48.266;7.402;2023-12-20T04:11:29;99678.03;;;8.94;79.27
43147;BME280;28752;48.266;7.402;2023-12-20T04:13:54;99673.91;;;8.80;79.78
43147;BME280;28752;48.266;7.402;2023-12-20T04:16:19;99679.97;;;8.92;80.06
43147;BME280;28752;48.266;7.402;2023-12-20T04:18:45;99672.19;;;8.90;80.23
43147;BME280;28752;48.266;7.402;2023-12-20T04:21:10;99658.31;;;8.98;79.64
43147;BME280;28752;48.266;7.402;2023-12-20T04:23:35;99682.41;;;8.83;80.38
43147;BME280;28752;48.266;7.402;2023-12-20T04:26:01;99690.97;;;8.76;80.23
43147;BME280;28752;48.266;7.402;2023-12-20T04:28:26;99690.06;;;8.86;80.27
43147;BME280;28752;48.266;7.402;2023-12-20T04:30:52;99684.91;;;8.85;80.10
43147;BME280;28752;48.266;7.402;2023-12-20T04:33:17;99685.25;;;8.92;79.76
43147;BME280;28752;48.266;7.402;2023-12-20T04:35:42;99693.59;;;8.76;80.06
43147;BME280;28752;48.266;7.402;2023-12-20T04:38:08;99695.81;;;8.92;79.35
43147;BME280;28752;48.266;7.402;2023-12-20T04:40:34;99710.81;;;8.91;79.34
43147;BME280;28752;48.266;7.402;2023-12-20T04:42:59;99697.56;;;9.02;78.73
43147;BME280;28752;48.266;7.402;2023-12-20T04:45:25;99702.19;;;9.10;78.65
43147;BME280;28752;48.266;7.402;2023-12-20T04:47:50;99709.97;;;9.12;78.85
43147;BME280;28752;48.266;7.402;2023-12-20T04:50:16;99696.13;;;8.98;79.37
43147;BME280;28752;48.266;7.402;2023-12-20T04:52:42;99676.16;;;9.05;78.93
43147;BME280;28752;48.266;7.402;2023-12-20T04:55:07;99673.56;;;8.94;79.43
43147;BME280;28752;48.266;7.402;2023-12-20T04:57:34;99679.59;;;8.96;79.25
43147;BME280;28752;48.266;7.402;2023-12-20T04:59:59;99672.09;;;9.01;79.02
43147;BME280;28752;48.266;7.402;2023-12-20T05:02:24;99670.09;;;8.94;78.89
43147;BME280;28752;48.266;7.402;2023-12-20T05:04:50;99674.09;;;8.88;79.56
43147;BME280;28752;48.266;7.402;2023-12-20T05:07:15;99676.69;;;8.78;79.43
43147;BME280;28752;48.266;7.402;2023-12-20T05:09:40;99678.91;;;8.62;79.77
43147;BME280;28752;48.266;7.402;2023-12-20T05:12:06;99672.97;;;8.81;79.90
43147;BME280;28752;48.266;7.402;2023-12-20T05:14:32;99674.81;;;8.69;80.20
43147;BME280;28752;48.266;7.402;2023-12-20T05:16:57;99697.63;;;8.70;80.12
43147;BME280;28752;48.266;7.402;2023-12-20T05:19:23;99695.84;;;8.59;80.32
43147;BME280;28752;48.266;7.402;2023-12-20T05:21:49;99696.31;;;8.64;80.05
43147;BME280;28752;48.266;7.402;2023-12-20T05:24:14;99691.94;;;8.53;80.97
43147;BME280;28752;48.266;7.402;2023-12-20T05:26:40;99695.25;;;8.56;80.59
43147;BME280;28752;48.266;7.402;2023-12-20T05:29:05;99692.81;;;8.64;80.52
43147;BME280;28752;48.266;7.402;2023-12-20T05:31:31;99692.38;;;8.59;80.44
43147;BME280;28752;48.266;7.402;2023-12-20T05:33:56;99693.44;;;8.56;80.38
43147;BME280;28752;48.266;7.402;2023-12-20T05:36:22;99695.66;;;8.51;80.58
43147;BME280;28752;48.266;7.402;2023-12-20T05:38:47;99689.41;;;8.52;80.78
43147;BME280;28752;48.266;7.402;2023-12-20T05:41:12;99700.81;;;8.41;80.96
43147;BME280;28752;48.266;7.402;2023-12-20T05:43:38;99713.28;;;8.50;80.46
43147;BME280;28752;48.266;7.402;2023-12-20T05:46:04;99713.03;;;8.53;80.47
43147;BME280;28752;48.266;7.402;2023-12-20T05:48:29;99715.47;;;8.34;81.08
43147;BME280;28752;48.266;7.402;2023-12-20T05:50:54;99740.84;;;8.58;79.96
43147;BME280;28752;48.266;7.402;2023-12-20T05:53:19;99741.94;;;8.55;80.13
43147;BME280;28752;48.266;7.402;2023-12-20T05:55:45;99742.00;;;8.65;79.26
43147;BME280;28752;48.266;7.402;2023-12-20T05:58:10;99737.34;;;8.68;78.92
43147;BME280;28752;48.266;7.402;2023-12-20T06:14:56;99759.19;;;8.59;78.37
43147;BME280;28752;48.266;7.402;2023-12-20T06:17:52;99761.81;;;8.59;78.73
43147;BME280;28752;48.266;7.402;2023-12-20T06:24:16;99762.81;;;8.58;79.25
43147;BME280;28752;48.266;7.402;2023-12-20T06:30:16;99779.22;;;8.62;79.80
43147;BME280;28752;48.266;7.402;2023-12-20T06:32:42;99782.22;;;8.68;79.61
43147;BME280;28752;48.266;7.402;2023-12-20T06:35:08;99786.94;;;8.53;80.19
43147;BME280;28752;48.266;7.402;2023-12-20T06:37:34;99783.13;;;8.79;79.59
43147;BME280;28752;48.266;7.402;2023-12-20T06:39:59;99783.59;;;8.84;79.66
43147;BME280;28752;48.266;7.402;2023-12-20T06:42:24;99786.25;;;8.84;79.77
43147;BME280;28752;48.266;7.402;2023-12-20T06:44:50;99777.66;;;8.70;80.40
43147;BME280;28752;48.266;7.402;2023-12-20T06:47:15;99772.56;;;9.11;78.72
43147;BME280;28752;48.266;7.402;2023-12-20T06:49:40;99768.75;;;9.25;77.94
43147;BME280;28752;48.266;7.402;2023-12-20T06:52:06;99779.06;;;9.07;78.71
43147;BME280;28752;48.266;7.402;2023-12-20T06:54:31;99794.84;;;9.18;79.15
43147;BME280;28752;48.266;7.402;2023-12-20T06:56:59;99799.84;;;9.21;78.78
43147;BME280;28752;48.266;7.402;2023-12-20T06:59:24;99805.63;;;9.27;78.33
43147;BME280;28752;48.266;7.402;2023-12-20T07:01:51;99804.28;;;9.32;77.96
43147;BME280;28752;48.266;7.402;2023-12-20T07:04:16;99819.84;;;9.14;78.58
43147;BME280;28752;48.266;7.402;2023-12-20T07:06:45;99830.31;;;9.37;77.73
43147;BME280;28752;48.266;7.402;2023-12-20T07:09:10;99841.00;;;9.35;77.73
43147;BME280;28752;48.266;7.402;2023-12-20T07:11:35;99834.88;;;9.35;77.72
43147;BME280;28752;48.266;7.402;2023-12-20T07:14:01;99841.50;;;9.29;77.51
43147;BME280;28752;48.266;7.402;2023-12-20T07:16:26;99850.41;;;9.28;77.35
43147;BME280;28752;48.266;7.402;2023-12-20T07:18:51;99844.31;;;9.16;77.94
43147;BME280;28752;48.266;7.402;2023-12-20T07:21:17;99843.03;;;9.11;77.54
43147;BME280;28752;48.266;7.402;2023-12-20T07:23:43;99857.78;;;9.13;76.07
43147;BME280;28752;48.266;7.402;2023-12-20T07:26:08;99864.56;;;9.27;75.55
43147;BME280;28752;48.266;7.402;2023-12-20T07:28:34;99874.13;;;9.39;75.93
43147;BME280;28752;48.266;7.402;2023-12-20T07:30:59;99871.13;;;9.12;75.47
43147;BME280;28752;48.266;7.402;2023-12-20T07:33:24;99873.69;;;9.34;75.61
43147;BME280;28752;48.266;7.402;2023-12-20T07:35:49;99884.16;;;9.57;73.93
43147;BME280;28752;48.266;7.402;2023-12-20T07:38:16;99884.91;;;9.48;73.92
43147;BME280;28752;48.266;7.402;2023-12-20T07:40:42;99888.84;;;9.32;74.14
43147;BME280;28752;48.266;7.402;2023-12-20T07:43:07;99886.44;;;9.50;73.55
43147;BME280;28752;48.266;7.402;2023-12-20T07:45:33;99890.06;;;9.49;73.39
43147;BME280;28752;48.266;7.402;2023-12-20T07:47:58;99890.72;;;9.63;73.29
43147;BME280;28752;48.266;7.402;2023-12-20T07:50:23;99883.28;;;9.56;73.13
43147;BME280;28752;48.266;7.402;2023-12-20T07:52:49;99887.31;;;9.51;71.11
43147;BME280;28752;48.266;7.402;2023-12-20T07:55:14;99884.31;;;9.44;70.08
43147;BME280;28752;48.266;7.402;2023-12-20T07:57:39;99894.16;;;9.21;68.79
43147;BME280;28752;48.266;7.402;2023-12-20T08:00:05;99887.97;;;9.32;68.48
43147;BME280;28752;48.266;7.402;2023-12-20T08:02:31;99913.53;;;9.10;69.21
43147;BME280;28752;48.266;7.402;2023-12-20T08:04:56;99916.75;;;9.14;69.10
43147;BME280;28752;48.266;7.402;2023-12-20T08:07:21;99914.28;;;9.01;69.24
43147;BME280;28752;48.266;7.402;2023-12-20T08:09:47;99913.78;;;9.07;68.89
43147;BME280;28752;48.266;7.402;2023-12-20T08:12:12;99917.84;;;9.00;69.13
43147;BME280;28752;48.266;7.402;2023-12-20T08:14:38;99928.31;;;9.01;68.58
43147;BME280;28752;48.266;7.402;2023-12-20T08:17:03;99934.66;;;9.10;68.44
43147;BME280;28752;48.266;7.402;2023-12-20T08:19:28;99933.91;;;9.19;68.33
43147;BME280;28752;48.266;7.402;2023-12-20T08:21:54;99938.59;;;9.16;68.71
43147;BME280;28752;48.266;7.402;2023-12-20T08:24:19;99946.78;;;9.01;68.95
43147;BME280;28752;48.266;7.402;2023-12-20T08:26:44;99953.44;;;8.84;69.03
43147;BME280;28752;48.266;7.402;2023-12-20T08:29:13;99969.25;;;8.96;68.93
43147;BME280;28752;48.266;7.402;2023-12-20T08:31:38;99951.47;;;9.09;67.77
43147;BME280;28752;48.266;7.402;2023-12-20T08:34:03;99952.44;;;8.97;68.80
43147;BME280;28752;48.266;7.402;2023-12-20T08:36:29;99952.69;;;8.94;68.76
43147;BME280;28752;48.266;7.402;2023-12-20T08:38:54;99958.59;;;8.86;69.03
43147;BME280;28752;48.266;7.402;2023-12-20T08:41:20;99959.06;;;8.80;67.42
43147;BME280;28752;48.266;7.402;2023-12-20T08:43:45;99959.44;;;9.30;65.98
43147;BME280;28752;48.266;7.402;2023-12-20T08:46:11;99977.78;;;8.99;66.14
43147;BME280;28752;48.266;7.402;2023-12-20T08:48:37;99969.44;;;9.27;65.81
43147;BME280;28752;48.266;7.402;2023-12-20T08:51:03;99960.56;;;9.16;66.26
43147;BME280;28752;48.266;7.402;2023-12-20T08:53:29;99975.56;;;9.27;66.35
43147;BME280;28752;48.266;7.402;2023-12-20T08:55:54;99979.00;;;8.84;64.57
43147;BME280;28752;48.266;7.402;2023-12-20T08:58:19;99987.38;;;9.12;63.47
43147;BME280;28752;48.266;7.402;2023-12-20T09:00:45;99965.53;;;9.10;63.62
43147;BME280;28752;48.266;7.402;2023-12-20T09:03:10;99977.63;;;9.12;63.39
43147;BME280;28752;48.266;7.402;2023-12-20T09:05:35;99977.25;;;9.28;62.71
43147;BME280;28752;48.266;7.402;2023-12-20T09:08:01;99992.34;;;9.37;62.71
43147;BME280;28752;48.266;7.402;2023-12-20T09:10:27;99992.03;;;9.19;63.06
43147;BME280;28752;48.266;7.402;2023-12-20T09:12:53;100004.03;;;9.12;63.95
43147;BME280;28752;48.266;7.402;2023-12-20T09:15:26;99998.72;;;9.35;63.45
43147;BME280;28752;48.266;7.402;2023-12-20T09:31:41;100001.16;;;9.59;62.04
43147;BME280;28752;48.266;7.402;2023-12-20T09:34:09;100002.69;;;9.29;61.96
43147;BME280;28752;48.266;7.402;2023-12-20T09:36:34;99991.28;;;9.40;62.53
43147;BME280;28752;48.266;7.402;2023-12-20T09:39:01;99994.75;;;9.40;62.31
43147;BME280;28752;48.266;7.402;2023-12-20T09:41:28;99997.38;;;9.73;61.15
43147;BME280;28752;48.266;7.402;2023-12-20T09:43:59;100002.53;;;9.86;60.51
43147;BME280;28752;48.266;7.402;2023-12-20T09:46:28;100000.50;;;9.78;60.25
43147;BME280;28752;48.266;7.402;2023-12-20T09:48:59;99998.13;;;9.75;60.44
43147;BME280;28752;48.266;7.402;2023-12-20T09:51:25;99998.38;;;9.72;60.58
43147;BME280;28752;48.266;7.402;2023-12-20T09:53:54;100012.59;;;9.16;60.08
43147;BME280;28752;48.266;7.402;2023-12-20T09:56:20;100023.69;;;9.42;59.90
43147;BME280;28752;48.266;7.402;2023-12-20T09:58:45;100019.19;;;9.65;59.97
43147;BME280;28752;48.266;7.402;2023-12-20T10:01:11;100016.97;;;9.82;60.64
43147;BME280;28752;48.266;7.402;2023-12-20T10:03:39;100014.44;;;9.48;61.32
43147;BME280;28752;48.266;7.402;2023-12-20T10:06:05;100022.06;;;9.62;60.52
43147;BME280;28752;48.266;7.402;2023-12-20T10:08:31;100019.94;;;9.56;61.29
43147;BME280;28752;48.266;7.402;2023-12-20T10:10:57;100020.31;;;9.51;61.58
43147;BME280;28752;48.266;7.402;2023-12-20T10:13:27;100022.00;;;9.52;61.79
43147;BME280;28752;48.266;7.402;2023-12-20T10:15:54;99999.72;;;9.66;61.41
43147;BME280;28752;48.266;7.402;2023-12-20T10:18:20;99991.47;;;9.48;61.70
43147;BME280;28752;48.266;7.402;2023-12-20T10:20:46;99990.47;;;9.60;61.24
43147;BME280;28752;48.266;7.402;2023-12-20T10:23:11;99980.16;;;9.57;61.34
43147;BME280;28752;48.266;7.402;2023-12-20T10:25:37;99985.91;;;9.63;60.72
43147;BME280;28752;48.266;7.402;2023-12-20T10:28:13;99982.63;;;9.70;61.27
43147;BME280;28752;48.266;7.402;2023-12-20T10:30:39;99979.53;;;9.86;60.36
43147;BME280;28752;48.266;7.402;2023-12-20T10:33:06;99976.91;;;10.07;60.04
43147;BME280;28752;48.266;7.402;2023-12-20T10:35:32;99976.00;;;10.18;59.56
43147;BME280;28752;48.266;7.402;2023-12-20T10:37:58;99969.88;;;10.18;59.22
43147;BME280;28752;48.266;7.402;2023-12-20T10:40:29;99954.66;;;9.89;59.52
43147;BME280;28752;48.266;7.402;2023-12-20T10:42:55;99953.78;;;10.09;59.13
43147;BME280;28752;48.266;7.402;2023-12-20T10:45:22;99948.06;;;9.83;59.63
43147;BME280;28752;48.266;7.402;2023-12-20T10:47:49;99942.34;;;9.99;59.15
43147;BME280;28752;48.266;7.402;2023-12-20T10:50:15;99934.16;;;10.02;58.55
43147;BME280;28752;48.266;7.402;2023-12-20T10:52:41;99940.06;;;9.73;59.43
43147;BME280;28752;48.266;7.402;2023-12-20T10:55:08;99940.25;;;10.03;58.59
43147;BME280;28752;48.266;7.402;2023-12-20T10:57:35;99933.34;;;10.11;57.52
43147;BME280;28752;48.266;7.402;2023-12-20T11:00:01;99924.13;;;9.85;58.53
43147;BME280;28752;48.266;7.402;2023-12-20T11:02:32;99912.97;;;9.60;58.89
43147;BME280;28752;48.266;7.402;2023-12-20T11:05:10;99945.53;;;9.28;59.61
43147;BME280;28752;48.266;7.402;2023-12-20T11:07:43;99931.31;;;9.40;59.37
43147;BME280;28752;48.266;7.402;2023-12-20T11:10:49;99938.31;;;9.84;59.39
43147;BME280;28752;48.266;7.402;2023-12-20T11:13:20;99933.88;;;9.31;59.88
43147;BME280;28752;48.266;7.402;2023-12-20T11:15:48;99928.88;;;9.49;60.87
43147;BME280;28752;48.266;7.402;2023-12-20T11:18:14;99932.38;;;9.91;59.59
43147;BME280;28752;48.266;7.402;2023-12-20T11:20:41;99920.81;;;10.13;59.42
43147;BME280;28752;48.266;7.402;2023-12-20T11:23:08;99912.13;;;10.02;59.29
43147;BME280;28752;48.266;7.402;2023-12-20T11:25:46;99911.88;;;9.84;59.00
43147;BME280;28752;48.266;7.402;2023-12-20T11:28:12;99912.59;;;10.07;59.73
43147;BME280;28752;48.266;7.402;2023-12-20T11:30:42;99910.31;;;10.23;58.51
43147;BME280;28752;48.266;7.402;2023-12-20T11:33:08;99906.63;;;10.14;58.47
43147;BME280;28752;48.266;7.402;2023-12-20T11:35:34;99917.59;;;10.31;59.83
43147;BME280;28752;48.266;7.402;2023-12-20T11:38:01;99893.91;;;10.60;57.68
43147;BME280;28752;48.266;7.402;2023-12-20T11:40:27;99906.25;;;10.50;59.01
43147;BME280;28752;48.266;7.402;2023-12-20T11:42:52;99904.00;;;10.45;59.49
43147;BME280;28752;48.266;7.402;2023-12-20T11:45:24;99903.66;;;10.60;59.09
43147;BME280;28752;48.266;7.402;2023-12-20T11:47:50;99903.53;;;10.61;59.40
43147;BME280;28752;48.266;7.402;2023-12-20T11:50:16;99906.16;;;10.61;58.97
43147;BME280;28752;48.266;7.402;2023-12-20T11:52:42;99905.09;;;10.43;59.49
43147;BME280;28752;48.266;7.402;2023-12-20T11:55:07;99896.56;;;10.70;58.95
43147;BME280;28752;48.266;7.402;2023-12-20T11:57:33;99899.94;;;10.72;58.62
43147;BME280;28752;48.266;7.402;2023-12-20T11:59:59;99886.09;;;10.69;58.56
43147;BME280;28752;48.266;7.402;2023-12-20T12:02:24;99899.72;;;10.54;59.04
43147;BME280;28752;48.266;7.402;2023-12-20T12:04:50;99902.97;;;10.68;58.88
43147;BME280;28752;48.266;7.402;2023-12-20T12:07:18;99893.53;;;10.34;59.38
43147;BME280;28752;48.266;7.402;2023-12-20T12:09:44;99891.19;;;10.41;59.40
43147;BME280;28752;48.266;7.402;2023-12-20T12:12:10;99904.22;;;10.32;59.81
43147;BME280;28752;48.266;7.402;2023-12-20T12:14:36;99910.47;;;10.62;59.33
43147;BME280;28752;48.266;7.402;2023-12-20T12:17:02;99904.78;;;10.67;58.81
43147;BME280;28752;48.266;7.402;2023-12-20T12:19:29;99903.44;;;10.42;59.54
43147;BME280;28752;48.266;7.402;2023-12-20T12:22:07;99900.22;;;10.38;59.63
43147;BME280;28752;48.266;7.402;2023-12-20T12:24:47;99897.97;;;10.64;59.70
43147;BME280;28752;48.266;7.402;2023-12-20T12:27:13;99894.16;;;10.57;59.02
43147;BME280;28752;48.266;7.402;2023-12-20T12:29:39;99874.00;;;10.66;59.00
43147;BME280;28752;48.266;7.402;2023-12-20T12:32:05;99881.00;;;10.46;60.21
43147;BME280;28752;48.266;7.402;2023-12-20T12:34:32;99892.59;;;10.45;59.62
43147;BME280;28752;48.266;7.402;2023-12-20T12:36:57;99886.91;;;10.49;59.57
43147;BME280;28752;48.266;7.402;2023-12-20T12:39:23;99879.56;;;10.73;59.50
43147;BME280;28752;48.266;7.402;2023-12-20T12:41:52;99881.25;;;10.83;59.27
43147;BME280;28752;48.266;7.402;2023-12-20T12:44:18;99876.66;;;10.76;59.25
43147;BME280;28752;48.266;7.402;2023-12-20T12:46:45;99882.34;;;10.71;59.68
43147;BME280;28752;48.266;7.402;2023-12-20T12:49:10;99868.78;;;10.45;59.85
43147;BME280;28752;48.266;7.402;2023-12-20T12:51:36;99873.13;;;10.25;59.81
43147;BME280;28752;48.266;7.402;2023-12-20T12:54:01;99876.03;;;10.53;59.56
43147;BME280;28752;48.266;7.402;2023-12-20T12:56:27;99871.00;;;10.49;59.00
43147;BME280;28752;48.266;7.402;2023-12-20T12:58:52;99873.94;;;10.56;59.08
43147;BME280;28752;48.266;7.402;2023-12-20T13:01:18;99875.50;;;10.69;59.43
43147;BME280;28752;48.266;7.402;2023-12-20T13:03:43;99882.47;;;10.60;59.38
43147;BME280;28752;48.266;7.402;2023-12-20T13:06:08;99874.81;;;10.66;59.54
43147;BME280;28752;48.266;7.402;2023-12-20T13:08:34;99886.69;;;10.72;59.35
43147;BME280;28752;48.266;7.402;2023-12-20T13:11:00;99882.22;;;10.73;59.43
43147;BME280;28752;48.266;7.402;2023-12-20T13:13:28;99884.22;;;10.90;58.75
43147;BME280;28752;48.266;7.402;2023-12-20T13:15:54;99881.25;;;10.74;58.90
43147;BME280;28752;48.266;7.402;2023-12-20T13:18:20;99876.78;;;10.64;58.51
43147;BME280;28752;48.266;7.402;2023-12-20T13:20:46;99877.53;;;10.45;59.20
43147;BME280;28752;48.266;7.402;2023-12-20T13:23:11;99864.16;;;10.47;59.01
43147;BME280;28752;48.266;7.402;2023-12-20T13:25:37;99875.78;;;10.25;59.54
43147;BME280;28752;48.266;7.402;2023-12-20T13:28:03;99879.94;;;10.27;59.51
43147;BME280;28752;48.266;7.402;2023-12-20T13:30:29;99878.75;;;10.41;59.06
43147;BME280;28752;48.266;7.402;2023-12-20T13:32:55;99870.56;;;10.44;59.47
43147;BME280;28752;48.266;7.402;2023-12-20T13:35:20;99869.66;;;10.65;58.59
43147;BME280;28752;48.266;7.402;2023-12-20T13:37:46;99867.00;;;10.55;58.12
43147;BME280;28752;48.266;7.402;2023-12-20T13:40:11;99857.09;;;10.57;58.18
43147;BME280;28752;48.266;7.402;2023-12-20T13:42:38;99850.25;;;10.55;57.75
43147;BME280;28752;48.266;7.402;2023-12-20T13:45:04;99854.19;;;10.70;57.53
43147;BME280;28752;48.266;7.402;2023-12-20T13:47:30;99867.41;;;10.60;56.68
43147;BME280;28752;48.266;7.402;2023-12-20T13:49:56;99870.78;;;10.72;57.10
43147;BME280;28752;48.266;7.402;2023-12-20T13:52:21;99870.75;;;10.62;57.82
43147;BME280;28752;48.266;7.402;2023-12-20T13:54:46;99856.13;;;10.58;57.85
43147;BME280;28752;48.266;7.402;2023-12-20T13:57:12;99879.16;;;10.37;58.10
43147;BME280;28752;48.266;7.402;2023-12-20T13:59:38;99878.84;;;10.30;58.73
43147;BME280;28752;48.266;7.402;2023-12-20T14:02:03;99883.00;;;10.23;60.40
43147;BME280;28752;48.266;7.402;2023-12-20T14:04:29;99873.56;;;10.30;59.91
43147;BME280;28752;48.266;7.402;2023-12-20T14:06:55;99870.22;;;10.28;59.42
43147;BME280;28752;48.266;7.402;2023-12-20T14:09:20;99876.13;;;10.20;60.68
43147;BME280;28752;48.266;7.402;2023-12-20T14:11:46;99872.22;;;10.36;60.20
43147;BME280;28752;48.266;7.402;2023-12-20T14:14:11;99869.88;;;10.21;61.22
43147;BME280;28752;48.266;7.402;2023-12-20T14:16:36;99858.22;;;10.24;60.90
43147;BME280;28752;48.266;7.402;2023-12-20T14:19:03;99861.19;;;10.09;62.01